• Join FlightAware (Why Join?)
  • Login
  • US Flag 
01:11PM EDT


 

Airport Tracker/Info


-or-


 

Live Flight TrackerFlight Track Log ✈ SKW6345 ✈ 26-Apr-2013 ✈ KCOD - KDEN

Flight Track Log - Related Links

Times and Time Zones

All times are in EDT time to prevent confusion due to time zone crossing. See the SKW6345 flight status page for this flight to view local times or setup timezone preferences in your user account.

Time Position Orientation Groundspeed Altitude Reporting Facility
EDT Latitude Longitude Course Direction KTS MPH feet Rate Location/Type
09:14AM 44.1418 -108.6789 159° South  Level FlightAware Approximate
09:14AM 44.5047 -109.0594 158° South 191 220 6,000  Level Salt Lake Center
09:15AM 44.0358 -108.6209 159° South  Level FlightAware Approximate
09:15AM 44.4578 -109.0578 179° South 214 246 8,000  Level Salt Lake Center
09:16AM 43.9300 -108.5619 157° South  Level FlightAware Approximate
09:16AM 44.4358 -108.9728 110° East 236 272 9,900  Level Salt Lake Center
09:17AM 43.8250 -108.5006 157° South  Level FlightAware Approximate
09:17AM 44.4117 -108.8531 106° East 268 308 12,200  Level Salt Lake Center
09:18AM 43.7198 -108.4398 157° South  Level FlightAware Approximate
09:18AM 44.3367 -108.7931 150° Southeast 314 361 13,900  Level Salt Lake Center
09:19AM 43.6146 -108.3796 158° South  Level FlightAware Approximate
09:19AM 44.2506 -108.7522 161° South 336 387 15,600  Level Salt Lake Center
09:20AM 44.1478 -108.6928 157° South 354 407 17,800 1,620 Climbing Salt Lake Center
09:21AM 44.0589 -108.6425 158° South 358 412 19,000 1,320 Climbing Salt Lake Center
09:22AM 43.9678 -108.5894 157° South 367 422 20,500 1,320 Climbing Salt Lake Center
09:23AM 43.8594 -108.5289 158° South 375 432 21,800 1,080 Climbing Salt Lake Center
09:24AM 43.7622 -108.4750 158° South 388 447 22,800 1,140 Climbing Salt Lake Center
09:25AM 43.6458 -108.4081 157° South 401 461 24,200 1,080 Climbing Salt Lake Center
09:26AM 43.5453 -108.3506 157° South 408 470 25,100 780 Climbing Salt Lake Center
09:27AM 43.4450 -108.2861 155° Southeast 413 475 25,800 540 Climbing Salt Lake Center
09:28AM 43.3394 -108.1733 142° Southeast 429 494 26,300 480 Climbing Salt Lake Center
09:29AM 43.2469 -108.0756 142° Southeast 435 501 26,800 480 Climbing Salt Lake Center
09:30AM 43.1539 -107.9764 142° Southeast 440 506 27,300 540 Climbing Salt Lake Center
09:31AM 43.0428 -107.8594 142° Southeast 449 517 27,900 600 Climbing Salt Lake Center
09:32AM 42.9500 -107.7594 142° Southeast 445 512 28,600 660 Climbing Salt Lake Center
09:33AM 42.8469 -107.6522 143° Southeast 446 513 29,300 660 Climbing Salt Lake Center
09:34AM 42.7539 -107.5539 142° Southeast 442 509 30,000 720 Climbing Salt Lake Center
09:35AM 42.6444 -107.4425 143° Southeast 440 506 30,800 480 Climbing Salt Lake Center
09:36AM 42.5522 -107.3453 142° Southeast 438 504 31,000 120 Climbing Salt Lake Center
09:36AM 42.5061 -107.2956 142° Southeast 440 506 31,000  Level Denver Center
09:38AM 42.4106 -107.1936 142° Southeast 453 521 31,000  Level Denver Center
09:39AM 42.3136 -107.0925 142° Southeast 458 527 31,000  Level Denver Center
09:40AM 42.2031 -106.9750 142° Southeast 453 521 31,000  Level Denver Center
09:41AM 42.1064 -106.8744 142° Southeast 457 526 31,000  Level Denver Center
09:42AM 42.0111 -106.7747 142° Southeast 453 521 31,000  Level Denver Center
09:43AM 41.8994 -106.6578 142° Southeast 453 521 31,000  Level Denver Center
09:44AM 41.8033 -106.5592 143° Southeast 452 520 31,000  Level Denver Center
09:45AM 41.6942 -106.4475 143° Southeast 456 525 31,000  Level Denver Center
09:46AM 41.5986 -106.3497 143° Southeast 453 521 31,000  Level Denver Center
09:47AM 41.5039 -106.2517 142° Southeast 450 518 31,000  Level Denver Center
09:48AM 41.3772 -106.1217 142° Southeast 450 518 31,000  Level Denver Center
09:49AM 41.2817 -106.0267 143° Southeast 449 517 31,000  Level Denver Center
09:50AM 41.1697 -105.9131 143° Southeast 454 522 31,000  Level Denver Center
09:51AM 41.0747 -105.8181 143° Southeast 449 517 31,000 -660 Level Denver Center
09:52AM 40.9694 -105.7128 143° Southeast 454 522 29,700 -1,560 Descending Denver Center
09:53AM 40.8694 -105.6119 143° Southeast 449 517 27,900 -1,860 Descending Denver Center
09:54AM 40.7689 -105.5114 143° Southeast 449 517 26,000 -1,920 Descending Denver Center
09:55AM 40.6678 -105.4128 143° Southeast 448 516 24,000 -2,040 Descending Denver Center
09:56AM 40.5728 -105.3178 143° Southeast 430 495 21,900 -1,740 Descending Denver Center
09:57AM 40.4850 -105.2308 143° Southeast 395 455 20,500 -1,500 Descending Denver Center
09:58AM 40.3942 -105.1597 149° Southeast 347 399 18,900 -1,440 Descending Denver Center
09:59AM 40.3131 -105.0931 148° Southeast 347 399 17,600 -1,380 Descending Denver Center
10:00AM 40.2339 -105.0311 149° Southeast 333 383 16,200 -1,200 Descending Denver Center
10:01AM 40.1567 -104.9689 148° Southeast 327 376 15,200 -1,020 Descending Denver Center
10:02AM 40.0761 -104.9053 149° Southeast 315 362 14,200 -1,020 Descending Denver Center
10:03AM 40.0033 -104.8469 148° Southeast 307 353 13,200 -1,020 Descending Denver Center
10:04AM 39.9250 -104.8058 158° South 311 358 12,200 -1,080 Descending Denver Center
10:05AM 39.8328 -104.8083 181° South 313 360 11,100 -660 Descending Denver Center
10:06AM 39.7522 -104.8108 181° South 282 325 10,900 -840 Descending Denver Center
10:07AM 39.6847 -104.7950 170° South 253 291 9,500 -1,080 Descending Denver Center
10:08AM 39.6875 -104.7164 87° East 223 257 8,700 -840 Descending Denver Center